Time;durP1;ratioP1;P1;durP2;ratioP2;P2;SDS_P1;SDS_P2;PMS_P1;PMS_P2;Temp;Humidity;BMP_temperature;BMP_pressure;BME280_temperature;BME280_humidity;BME280_pressure;Samples;Min_cycle;Max_cycle;Signal;HPM_P1;HPM_P2
2022/02/09 00:02:26;;;;;;;3.30;2.30;;;14.60;56.00;;;;;;4986741;28;20510;-44
2022/02/09 00:07:38;;;;;;;2.40;2.20;;;14.60;55.70;;;;;;4973022;28;20457;-45
2022/02/09 00:10:05;;;;;;;4.87;2.03;;;14.70;55.70;;;;;;4980371;28;20489;-44
2022/02/09 00:12:41;;;;;;;3.60;2.50;;;14.80;55.50;;;;;;4991122;28;20444;-46
2022/02/09 00:36:05;;;;;;;5.03;2.70;;;15.20;54.60;;;;;;4979713;28;22726;-46
2022/02/09 01:38:09;;;;;;;3.77;2.77;;;15.20;54.20;;;;;;4978031;28;20469;-45
2022/02/09 01:56:52;;;;;;;3.20;2.90;;;15.00;54.50;;;;;;4985235;28;20850;-44
2022/02/09 01:59:18;;;;;;;3.90;3.60;;;15.00;54.60;;;;;;4988395;28;21171;-44
2022/02/09 02:01:44;;;;;;;4.63;3.37;;;15.10;54.60;;;;;;4982758;28;20446;-45
2022/02/09 02:04:09;;;;;;;6.73;3.13;;;15.10;54.40;;;;;;4985515;28;20198;-45
2022/02/09 02:06:35;;;;;;;4.50;3.50;;;15.10;54.20;;;;;;4986399;28;20222;-46
2022/02/09 02:09:02;;;;;;;3.83;3.10;;;15.00;54.30;;;;;;4983901;28;20191;-44
2022/02/09 02:11:33;;;;;;;8.50;5.50;;;14.90;54.40;;;;;;4981521;28;20454;-49
2022/02/09 02:19:35;;;;;;;4.80;3.17;;;14.80;54.90;;;;;;4970331;28;20458;-45
2022/02/09 02:59:03;;;;;;;10.43;3.63;;;14.90;55.00;;;;;;4992177;28;20464;-46
2022/02/09 03:09:48;;;;;;;6.83;3.53;;;14.80;55.10;;;;;;4992066;28;20476;-46
2022/02/09 03:12:16;;;;;;;6.37;4.47;;;14.80;55.10;;;;;;4979199;28;20446;-46
2022/02/09 03:14:53;;;;;;;4.13;3.37;;;14.80;55.10;;;;;;4985437;28;20457;-44
2022/02/09 03:17:24;;;;;;;4.73;3.40;;;14.80;55.50;;;;;;4988721;28;20553;-44
2022/02/09 03:20:09;;;;;;;4.40;4.00;;;14.80;55.60;;;;;;4986301;28;20997;-47
2022/02/09 03:23:02;;;;;;;4.70;3.97;;;14.80;55.40;;;;;;4980913;28;20921;-47
2022/02/09 03:44:33;;;;;;;4.70;3.20;;;14.00;56.80;;;;;;4989022;28;20574;-45
2022/02/09 03:55:15;;;;;;;6.00;3.57;;;13.90;57.20;;;;;;4986592;28;20481;-45
2022/02/09 03:57:45;;;;;;;5.17;3.37;;;13.80;57.10;;;;;;4981878;28;20460;-49
2022/02/09 04:00:22;;;;;;;6.33;3.23;;;13.80;57.10;;;;;;4984927;28;20453;-45
2022/02/09 04:02:53;;;;;;;8.27;3.47;;;13.80;57.20;;;;;;4985240;28;20437;-46
2022/02/09 04:05:20;;;;;;;4.70;3.10;;;13.60;57.30;;;;;;4985100;28;20489;-49
2022/02/09 04:07:46;;;;;;;6.50;3.43;;;13.60;57.50;;;;;;4992294;28;20437;-50
2022/02/09 04:10:19;;;;;;;4.60;3.20;;;13.70;57.50;;;;;;4984107;28;20444;-47
2022/02/09 04:17:58;;;;;;;9.57;4.37;;;13.50;58.10;;;;;;4982691;28;20646;-47
2022/02/09 04:22:34;;;;;;;3.57;3.27;;;13.40;58.20;;;;;;4983754;28;20457;-46
2022/02/09 04:37:16;;;;;;;4.27;3.40;;;13.40;58.40;;;;;;4976003;28;20488;-47
2022/02/09 04:43:06;;;;;;;5.83;3.67;;;13.50;58.40;;;;;;4975992;28;20545;-49
2022/02/09 04:48:12;;;;;;;8.50;3.60;;;13.10;59.10;;;;;;4975731;28;20607;-44
2022/02/09 04:51:04;;;;;;;3.53;3.10;;;13.00;59.40;;;;;;4985872;28;20202;-48
2022/02/09 04:55:55;;;;;;;6.50;3.03;;;13.20;59.10;;;;;;4983832;28;20445;-50
2022/02/09 04:58:40;;;;;;;3.30;2.87;;;13.20;58.90;;;;;;4985452;28;20211;-47
2022/02/09 05:25:15;;;;;;;6.33;3.27;;;13.30;57.80;;;;;;4978273;28;20544;-44
2022/02/09 05:28:00;;;;;;;4.47;3.10;;;13.30;57.70;;;;;;4987325;28;20244;-44
2022/02/09 05:30:25;;;;;;;7.47;2.93;;;13.30;57.70;;;;;;4985902;28;20437;-46
2022/02/09 05:32:51;;;;;;;7.87;3.93;;;13.30;57.80;;;;;;4976050;28;20472;-48
2022/02/09 05:35:20;;;;;;;4.13;3.20;;;13.40;57.90;;;;;;4977217;28;20202;-45
2022/02/09 05:37:47;;;;;;;5.23;3.20;;;13.40;58.00;;;;;;4986159;28;20187;-47
2022/02/09 05:40:13;;;;;;;6.93;3.40;;;13.40;57.90;;;;;;4983078;28;20851;-45
2022/02/09 05:42:39;;;;;;;3.40;3.10;;;13.40;57.80;;;;;;4984253;28;20468;-45
2022/02/09 05:45:08;;;;;;;4.63;3.13;;;13.30;57.80;;;;;;4980942;28;20273;-45
2022/02/09 05:53:15;;;;;;;8.20;3.57;;;13.30;58.10;;;;;;4987138;28;20445;-44
2022/02/09 05:58:14;;;;;;;3.07;2.83;;;13.30;57.90;;;;;;4982076;28;20813;-44
2022/02/09 06:00:47;;;;;;;3.73;3.00;;;13.30;58.00;;;;;;4985318;28;20476;-45
2022/02/09 06:03:14;;;;;;;4.47;4.00;;;13.30;57.80;;;;;;4982771;28;20460;-44
2022/02/09 06:05:39;;;;;;;4.80;3.67;;;13.30;57.80;;;;;;4974752;28;20875;-45
2022/02/09 06:08:05;;;;;;;4.60;2.73;;;13.20;57.90;;;;;;4977907;28;20461;-44
2022/02/09 06:10:33;;;;;;;5.20;3.67;;;13.30;57.90;;;;;;4975648;28;20203;-44
2022/02/09 06:13:19;;;;;;;3.90;3.47;;;13.10;58.20;;;;;;4979335;28;20202;-44
2022/02/09 06:21:18;;;;;;;5.57;3.87;;;13.50;59.40;;;;;;4986379;28;21187;-44
2022/02/09 06:23:43;;;;;;;6.47;5.87;;;13.70;58.80;;;;;;4985205;28;20508;-46
2022/02/09 06:26:09;;;;;;;6.30;4.63;;;13.80;57.60;;;;;;4988991;28;20993;-45
2022/02/09 06:28:34;;;;;;;6.77;4.87;;;13.90;57.00;;;;;;4979312;28;20208;-45
2022/02/09 06:31:00;;;;;;;5.63;4.10;;;14.00;56.70;;;;;;4984440;28;20198;-44
2022/02/09 06:33:26;;;;;;;4.80;4.03;;;14.10;56.40;;;;;;4983201;28;20205;-46
2022/02/09 06:35:54;;;;;;;6.37;3.73;;;14.10;56.00;;;;;;4982727;28;20221;-48
2022/02/09 06:38:20;;;;;;;4.13;3.50;;;14.00;55.90;;;;;;4989739;28;20187;-45
2022/02/09 06:40:52;;;;;;;5.83;3.63;;;14.00;56.30;;;;;;4990999;28;20488;-44
2022/02/09 06:43:17;;;;;;;5.30;3.70;;;14.10;56.50;;;;;;4990682;28;20875;-44
2022/02/09 06:45:43;;;;;;;4.17;3.33;;;14.10;56.20;;;;;;4992544;28;20568;-45
2022/02/09 06:48:13;;;;;;;4.80;3.30;;;14.20;55.80;;;;;;4990920;28;20226;-46
2022/02/09 06:50:44;;;;;;;8.10;3.77;;;14.40;55.80;;;;;;4990959;28;20458;-45
2022/02/09 06:55:51;;;;;;;2.80;2.60;;;14.40;54.30;;;;;;4988765;28;20462;-44
2022/02/09 06:58:21;;;;;;;3.30;3.00;;;14.50;54.20;;;;;;4986991;28;20437;-47
2022/02/09 07:00:47;;;;;;;5.77;3.90;;;14.50;54.10;;;;;;4987890;28;20466;-46
2022/02/09 07:03:13;;;;;;;8.17;3.73;;;14.60;53.80;;;;;;4987545;28;20532;-46
2022/02/09 07:05:40;;;;;;;5.13;4.00;;;14.60;53.90;;;;;;4992827;28;20233;-44
2022/02/09 07:08:05;;;;;;;6.80;3.63;;;14.40;53.60;;;;;;4989674;28;20827;-45
2022/02/09 07:10:31;;;;;;;7.03;3.90;;;14.40;53.80;;;;;;4985269;28;20430;-44
2022/02/09 07:12:57;;;;;;;5.47;3.80;;;14.40;54.20;;;;;;4982998;28;20196;-44
2022/02/09 07:15:29;;;;;;;4.70;3.60;;;14.40;53.70;;;;;;4990016;28;20187;-45
2022/02/09 07:17:56;;;;;;;9.90;4.40;;;14.20;53.00;;;;;;4988843;28;20198;-44
2022/02/09 07:20:26;;;;;;;6.03;3.80;;;14.20;52.60;;;;;;4987036;28;20444;-45
2022/02/09 07:22:55;;;;;;;5.83;4.20;;;14.30;52.60;;;;;;4988296;28;20945;-44
2022/02/09 07:25:29;;;;;;;4.17;3.73;;;14.20;52.10;;;;;;4987538;28;20572;-46
2022/02/09 07:27:55;;;;;;;5.10;3.50;;;14.20;52.20;;;;;;4991653;28;20433;-46
2022/02/09 07:30:25;;;;;;;5.97;3.70;;;14.40;52.50;;;;;;4989118;28;20441;-45
2022/02/09 07:32:53;;;;;;;5.93;4.20;;;14.70;51.10;;;;;;4990850;28;20199;-45
2022/02/09 07:35:18;;;;;;;6.67;4.10;;;15.00;50.10;;;;;;4987051;28;20926;-45
2022/02/09 07:37:44;;;;;;;3.73;3.43;;;15.40;49.20;;;;;;4974972;28;20533;-45
2022/02/09 07:40:12;;;;;;;6.40;3.80;;;15.70;48.10;;;;;;4989462;28;20277;-48
2022/02/09 07:42:44;;;;;;;5.03;3.57;;;16.10;47.50;;;;;;4989503;28;20442;-45
2022/02/09 07:53:44;;;;;;;6.20;3.57;;;16.70;45.10;;;;;;4983256;28;20470;-46
2022/02/09 07:55:41;;;;;;;6.93;3.20;;;16.80;44.70;;;;;;4983609;28;20442;-49
2022/02/09 07:58:07;;;;;;;7.70;3.57;;;16.80;44.50;;;;;;4991575;28;20786;-46
2022/02/09 08:00:33;;;;;;;6.77;3.37;;;16.80;43.90;;;;;;5008636;28;20477;-45
2022/02/09 08:03:00;;;;;;;5.30;3.73;;;16.60;44.10;;;;;;4981571;28;20443;-46
2022/02/09 08:05:25;;;;;;;6.43;4.33;;;16.70;44.40;;;;;;4989793;28;20530;-44
2022/02/09 08:07:53;;;;;;;4.60;3.10;;;16.50;44.20;;;;;;4984801;28;20489;-47
2022/02/09 08:11:12;;;;;;;9.83;4.07;;;16.50;44.60;;;;;;4994010;28;20199;-44
2022/02/09 08:24:09;;;;;;;3.50;2.70;;;15.50;44.70;;;;;;4986044;28;20449;-45
2022/02/09 08:27:05;;;;;;;9.90;3.50;;;15.20;45.40;;;;;;4987549;28;20488;-44
2022/02/09 08:29:43;;;;;;;5.47;3.23;;;15.10;46.30;;;;;;4989359;28;20447;-45
2022/02/09 08:34:35;;;;;;;4.73;3.00;;;15.10;45.90;;;;;;4999248;28;20454;-45
2022/02/09 08:37:00;;;;;;;6.50;3.07;;;15.00;46.10;;;;;;4991586;28;20226;-48
2022/02/09 08:39:26;;;;;;;8.23;3.37;;;14.90;46.10;;;;;;4992644;28;20453;-45
2022/02/09 08:41:53;;;;;;;4.43;3.10;;;14.90;46.70;;;;;;4982233;28;20194;-45
2022/02/09 08:44:18;;;;;;;3.43;2.77;;;14.90;46.40;;;;;;4988190;28;20441;-45
2022/02/09 08:46:44;;;;;;;6.33;2.97;;;15.00;46.70;;;;;;4988535;28;20501;-47
2022/02/09 08:49:10;;;;;;;5.23;3.60;;;15.00;46.50;;;;;;4991661;28;20811;-45
2022/02/09 08:51:36;;;;;;;5.40;3.57;;;15.10;46.40;;;;;;4983780;28;20242;-46
2022/02/09 08:54:03;;;;;;;5.50;3.13;;;15.10;47.10;;;;;;4986270;28;20457;-48
2022/02/09 08:56:30;;;;;;;7.87;2.97;;;15.10;46.90;;;;;;4987879;28;20450;-45
2022/02/09 08:58:58;;;;;;;5.70;3.37;;;15.20;46.90;;;;;;4989952;28;20442;-45
2022/02/09 09:01:37;;;;;;;3.87;2.90;;;15.40;46.70;;;;;;4986889;28;20954;-46
2022/02/09 09:04:13;;;;;;;2.90;2.67;;;15.50;46.60;;;;;;4988401;28;20444;-46
2022/02/09 09:06:41;;;;;;;4.90;2.60;;;15.50;46.40;;;;;;4983342;28;20567;-45
2022/02/09 09:14:49;;;;;;;6.00;3.03;;;15.50;46.40;;;;;;4988783;28;21079;-46
2022/02/09 10:03:28;;;;;;;5.87;2.70;;;16.60;45.10;;;;;;4978898;28;20496;-51
2022/02/09 10:34:21;;;;;;;4.73;2.07;;;19.20;42.60;;;;;;4990273;28;20437;-47
2022/02/09 10:36:54;;;;;;;4.37;1.73;;;19.20;42.40;;;;;;4987727;28;20445;-49
2022/02/09 10:39:25;;;;;;;4.07;2.20;;;19.10;42.00;;;;;;4977870;28;20501;-47
2022/02/09 10:41:52;;;;;;;2.90;2.30;;;19.30;42.60;;;;;;4980980;28;20442;-51
2022/02/09 10:44:23;;;;;;;6.10;1.90;;;19.30;41.70;;;;;;4978302;28;20438;-46
2022/02/09 10:46:57;;;;;;;3.00;1.40;;;18.80;42.30;;;;;;4992613;28;20591;-51
2022/02/09 10:49:28;;;;;;;3.20;1.67;;;18.70;43.60;;;;;;4986393;28;21004;-49
2022/02/09 10:52:08;;;;;;;2.17;1.60;;;18.90;43.40;;;;;;4987627;28;20559;-49
2022/02/09 10:54:35;;;;;;;4.77;2.00;;;19.20;43.30;;;;;;4984131;28;20470;-48
2022/02/09 10:57:05;;;;;;;5.20;2.77;;;19.50;41.70;;;;;;4982801;28;20426;-47
2022/02/09 10:59:35;;;;;;;5.03;2.57;;;19.70;41.50;;;;;;4995097;28;20445;-50
2022/02/09 11:02:02;;;;;;;4.00;2.40;;;19.90;41.00;;;;;;4987286;28;20516;-50
2022/02/09 11:04:29;;;;;;;7.87;2.40;;;20.00;40.80;;;;;;4987782;28;20472;-47
2022/02/09 11:06:55;;;;;;;7.20;2.47;;;20.20;40.70;;;;;;4992743;28;20490;-47
2022/02/09 11:09:22;;;;;;;3.60;2.07;;;20.20;39.90;;;;;;4991459;28;20450;-46
2022/02/09 11:11:48;;;;;;;4.80;1.90;;;20.40;39.50;;;;;;4992479;28;20434;-52
2022/02/09 11:14:16;;;;;;;3.50;1.93;;;20.30;39.70;;;;;;4987002;28;20941;-47
2022/02/09 11:17:00;;;;;;;2.73;2.07;;;20.30;40.90;;;;;;4993068;28;20320;-49
2022/02/09 11:19:35;;;;;;;3.63;2.03;;;20.30;40.00;;;;;;4995744;28;20437;-47
2022/02/09 11:22:06;;;;;;;5.13;2.20;;;20.30;40.20;;;;;;4989970;28;20850;-50
2022/02/09 11:24:32;;;;;;;2.40;2.20;;;20.40;39.50;;;;;;4998627;28;20819;-50
2022/02/09 11:27:34;;;;;;;2.93;2.10;;;20.30;40.30;;;;;;4996506;28;20485;-50
2022/02/09 11:30:23;;;;;;;6.10;2.50;;;20.50;40.70;;;;;;4987639;28;20216;-48
2022/02/09 11:33:24;;;;;;;3.03;2.50;;;20.50;40.60;;;;;;4991883;28;20465;-49
2022/02/09 11:36:18;;;;;;;2.60;2.17;;;20.60;40.60;;;;;;4989037;28;20448;-49
2022/02/09 11:38:49;;;;;;;4.93;2.40;;;20.70;39.40;;;;;;4990544;28;20457;-47
2022/02/09 11:41:22;;;;;;;5.70;2.60;;;20.70;39.40;;;;;;4991258;28;20471;-51
2022/02/09 11:43:59;;;;;;;7.13;2.07;;;20.70;40.10;;;;;;4989706;28;20465;-48
2022/02/09 11:46:48;;;;;;;3.83;1.93;;;20.90;40.10;;;;;;4992396;28;20444;-46
2022/02/09 12:11:24;;;;;;;3.50;2.20;;;22.70;36.80;;;;;;4989762;28;20462;-46
2022/02/09 12:19:10;;;;;;;2.90;2.50;;;23.00;35.60;;;;;;4988722;28;20469;-49
2022/02/09 12:21:45;;;;;;;4.60;2.80;;;23.00;35.80;;;;;;4991970;28;20442;-47
2022/02/09 12:24:27;;;;;;;3.80;2.03;;;23.10;35.30;;;;;;4991669;28;20449;-46
2022/02/09 12:27:01;;;;;;;2.80;2.50;;;23.00;35.40;;;;;;4983447;28;20445;-50
2022/02/09 12:29:33;;;;;;;5.53;2.43;;;22.90;35.70;;;;;;4989355;28;20452;-47
2022/02/09 12:31:59;;;;;;;8.83;2.63;;;22.70;35.50;;;;;;4987553;28;20446;-47
2022/02/09 12:34:28;;;;;;;2.57;2.30;;;22.50;35.10;;;;;;4989110;28;20520;-48
2022/02/09 12:36:54;;;;;;;5.57;2.40;;;22.40;35.80;;;;;;4987215;28;21057;-52
2022/02/09 12:39:20;;;;;;;2.67;1.83;;;22.30;35.80;;;;;;4991378;28;21000;-47
2022/02/09 12:41:48;;;;;;;3.70;2.00;;;22.00;36.20;;;;;;4991065;28;20438;-46
2022/02/09 12:44:23;;;;;;;4.43;2.23;;;22.00;36.40;;;;;;4984109;28;20985;-49
2022/02/09 12:46:49;;;;;;;4.33;2.47;;;21.50;36.10;;;;;;4994337;28;20445;-50
2022/02/09 12:49:17;;;;;;;4.73;2.50;;;21.50;37.00;;;;;;4994916;28;20503;-46
2022/02/09 12:51:46;;;;;;;2.87;2.40;;;21.60;37.10;;;;;;4992306;28;20502;-46
2022/02/09 12:54:13;;;;;;;3.10;2.00;;;21.60;37.40;;;;;;4988425;28;20546;-46
2022/02/09 12:56:42;;;;;;;3.70;1.87;;;21.50;36.50;;;;;;4987985;28;20579;-49
2022/02/09 12:59:08;;;;;;;4.83;2.20;;;21.60;37.20;;;;;;4989648;28;20429;-47
2022/02/09 13:01:55;;;;;;;2.80;2.17;;;21.60;36.90;;;;;;4990990;28;20814;-45
2022/02/09 13:04:28;;;;;;;3.00;2.13;;;21.70;36.30;;;;;;4994838;28;20281;-45
2022/02/09 13:06:54;;;;;;;3.80;1.97;;;21.70;37.40;;;;;;4985228;28;20445;-49
2022/02/09 13:09:19;;;;;;;3.00;2.07;;;21.70;36.60;;;;;;4988383;28;20434;-49
2022/02/09 13:11:45;;;;;;;5.50;2.07;;;21.70;36.90;;;;;;4987732;28;20215;-50
2022/02/09 13:14:16;;;;;;;4.67;1.70;;;21.50;37.30;;;;;;4991625;28;20573;-51
2022/02/09 13:25:25;;;;;;;3.17;2.17;;;22.00;36.80;;;;;;4983730;28;20446;-46
2022/02/09 14:04:42;;;;;;;1.47;1.13;;;23.30;34.60;;;;;;4956709;28;20437;-50
2022/02/09 14:52:57;;;;;;;2.27;1.80;;;23.40;34.80;;;;;;4988490;28;20437;-46
2022/02/09 14:58:10;;;;;;;2.63;1.90;;;23.50;35.30;;;;;;4985149;28;22578;-46
2022/02/09 15:00:40;;;;;;;3.83;1.90;;;23.50;35.50;;;;;;4990570;28;20436;-49
2022/02/09 15:03:44;;;;;;;2.17;1.97;;;23.60;35.20;;;;;;4991210;28;20437;-45
2022/02/09 15:08:55;;;;;;;3.10;2.57;;;23.70;35.30;;;;;;4991064;28;20499;-46
2022/02/09 15:22:35;;;;;;;2.27;2.07;;;23.90;34.40;;;;;;4933514;29;21172;-51
2022/02/09 15:25:04;;;;;;;2.70;1.37;;;23.80;34.70;;;;;;4969515;28;20434;-52
2022/02/09 15:27:29;;;;;;;1.67;1.50;;;23.80;34.60;;;;;;4993336;28;20442;-51
2022/02/09 15:29:55;;;;;;;1.80;1.40;;;23.90;34.40;;;;;;4991571;28;20814;-53
2022/02/09 15:35:25;;;;;;;2.10;1.53;;;24.00;34.70;;;;;;4969598;28;20231;-50
2022/02/09 15:37:59;;;;;;;4.90;1.93;;;24.00;34.50;;;;;;4991064;28;20499;-47
2022/02/09 16:23:48;;;;;;;3.90;1.83;;;21.70;39.00;;;;;;4979033;28;20488;-48
2022/02/09 16:45:08;;;;;;;2.30;1.90;;;20.80;40.20;;;;;;4988870;28;20851;-47
2022/02/09 16:50:24;;;;;;;4.97;2.57;;;20.60;40.60;;;;;;4992464;28;20543;-47
2022/02/09 16:53:11;;;;;;;4.07;2.57;;;20.50;40.80;;;;;;4990280;28;20449;-46
2022/02/09 16:56:07;;;;;;;3.40;3.00;;;20.40;40.80;;;;;;5006715;28;20485;-49
2022/02/09 17:19:44;;;;;;;7.47;3.87;;;19.50;42.20;;;;;;4987187;28;20448;-48
2022/02/09 17:22:14;;;;;;;6.60;4.53;;;19.40;42.30;;;;;;5090323;27;1319976;-47
2022/02/09 17:24:40;;;;;;;8.30;4.27;;;19.10;42.60;;;;;;5118640;28;20194;-49
2022/02/09 17:27:10;;;;;;;10.57;4.50;;;19.00;42.70;;;;;;5111364;28;20197;-45
2022/02/09 17:32:24;;;;;;;8.10;5.20;;;18.90;42.90;;;;;;5122734;28;20462;-49
2022/02/09 17:35:29;;;;;;;6.50;4.20;;;18.90;43.10;;;;;;5119629;28;20950;-45
2022/02/09 17:57:06;;;;;;;8.30;6.07;;;18.00;44.60;;;;;;5109982;28;20499;-51
2022/02/09 17:59:33;;;;;;;10.23;6.70;;;17.90;44.80;;;;;;5123749;28;20427;-50
2022/02/09 18:01:59;;;;;;;7.20;5.60;;;17.80;45.00;;;;;;5123263;27;20904;-48
2022/02/09 18:04:24;;;;;;;7.53;6.37;;;17.70;45.00;;;;;;5115511;28;20439;-47
2022/02/09 18:07:02;;;;;;;8.37;7.60;;;17.60;45.10;;;;;;5118793;27;20197;-46
2022/02/09 18:09:43;;;;;;;9.27;6.53;;;17.50;45.20;;;;;;5117565;28;20190;-50
2022/02/09 18:12:22;;;;;;;8.23;6.63;;;17.60;45.20;;;;;;5110491;28;20440;-49
2022/02/09 18:15:22;;;;;;;8.10;6.30;;;17.60;45.00;;;;;;5118580;28;20439;-50
2022/02/09 18:26:42;;;;;;;8.10;6.87;;;17.40;45.10;;;;;;5123847;28;20450;-46
2022/02/09 18:31:36;;;;;;;8.97;6.70;;;17.10;45.70;;;;;;5113667;28;20431;-49
2022/02/09 18:44:58;;;;;;;9.83;8.20;;;16.90;46.10;;;;;;5096298;28;20524;-49
2022/02/09 18:59:02;;;;;;;9.13;6.80;;;16.40;46.70;;;;;;5110522;28;20799;-47
2022/02/09 19:03:52;;;;;;;8.93;6.57;;;16.20;46.80;;;;;;5097989;28;20828;-50
2022/02/09 19:06:22;;;;;;;9.90;6.30;;;16.20;47.00;;;;;;5106730;28;20776;-48
2022/02/09 19:14:48;;;;;;;9.00;5.43;;;16.10;46.50;;;;;;5100352;28;20444;-49
2022/02/09 19:33:24;;;;;;;7.73;6.13;;;15.50;48.10;;;;;;5103623;28;20429;-45
2022/02/09 19:49:02;;;;;;;8.93;6.30;;;15.30;48.20;;;;;;5101883;28;20519;-46
2022/02/09 19:51:42;;;;;;;9.27;7.33;;;15.20;48.10;;;;;;5105414;28;20481;-45
2022/02/09 19:54:39;;;;;;;11.53;7.00;;;15.20;48.40;;;;;;5100589;28;20459;-46
2022/02/09 19:57:03;;;;;;;7.70;5.60;;;15.10;48.70;;;;;;5102037;28;20574;-44
2022/02/09 19:59:31;;;;;;;9.67;5.60;;;15.00;49.20;;;;;;5104752;28;20436;-45
2022/02/09 20:01:57;;;;;;;7.80;6.20;;;14.50;50.10;;;;;;5094483;28;20477;-47
2022/02/09 20:04:24;;;;;;;10.20;6.33;;;14.50;50.50;;;;;;5098799;28;20800;-46
2022/02/09 20:06:49;;;;;;;8.33;5.07;;;14.60;50.20;;;;;;5103217;28;20433;-46
2022/02/09 20:09:15;;;;;;;9.87;7.37;;;14.60;49.70;;;;;;5103076;28;20838;-45
2022/02/09 20:11:43;;;;;;;7.50;6.03;;;14.70;49.60;;;;;;5097956;28;20681;-46
2022/02/09 20:14:11;;;;;;;7.43;6.00;;;14.70;49.30;;;;;;5094284;28;20452;-48
2022/02/09 20:16:38;;;;;;;7.53;5.60;;;14.60;49.10;;;;;;5097127;28;20443;-46
2022/02/09 20:19:04;;;;;;;8.30;6.80;;;14.60;49.10;;;;;;5103884;28;20478;-45
2022/02/09 20:21:30;;;;;;;7.83;5.93;;;14.70;49.00;;;;;;5093146;28;20501;-45
2022/02/09 20:23:56;;;;;;;9.57;6.30;;;14.50;49.30;;;;;;5103132;28;20441;-45
2022/02/09 20:26:23;;;;;;;14.63;7.00;;;14.50;49.80;;;;;;5103202;28;20482;-45
2022/02/09 20:28:57;;;;;;;9.63;6.10;;;14.30;50.70;;;;;;5093868;28;20198;-45
2022/02/09 20:31:29;;;;;;;10.70;5.90;;;14.00;50.80;;;;;;5100950;28;20468;-46
2022/02/09 20:34:01;;;;;;;13.07;7.60;;;14.10;51.10;;;;;;5097287;28;20428;-48
2022/02/09 20:36:27;;;;;;;10.40;7.10;;;14.10;50.70;;;;;;5106081;28;20429;-47
2022/02/09 20:38:56;;;;;;;16.30;7.10;;;14.10;50.70;;;;;;5099246;28;20603;-46
2022/02/09 20:41:22;;;;;;;11.07;7.50;;;14.00;50.70;;;;;;5096807;28;20493;-47
2022/02/09 20:44:05;;;;;;;11.13;7.83;;;14.00;50.60;;;;;;5104344;28;20438;-47
2022/02/09 20:46:33;;;;;;;8.47;6.77;;;14.00;50.60;;;;;;5101990;28;20532;-45
2022/02/09 20:49:01;;;;;;;8.50;7.43;;;14.00;50.60;;;;;;5099119;28;20441;-51
2022/02/09 20:51:28;;;;;;;9.37;6.50;;;14.00;50.90;;;;;;5101114;28;20829;-45
2022/02/09 20:53:54;;;;;;;8.57;6.70;;;14.00;51.90;;;;;;5111033;28;20436;-47
2022/02/09 20:56:20;;;;;;;9.07;6.90;;;13.90;52.10;;;;;;5104984;28;20914;-45
2022/02/09 20:58:49;;;;;;;13.17;6.97;;;13.60;52.40;;;;;;5094799;28;20413;-47
2022/02/09 21:01:19;;;;;;;11.17;7.00;;;13.70;52.90;;;;;;5099292;28;20233;-45
2022/02/09 21:03:58;;;;;;;10.43;7.70;;;13.80;51.70;;;;;;5102563;28;20446;-46
2022/02/09 21:06:38;;;;;;;10.33;7.30;;;13.70;51.90;;;;;;5100285;28;21308;-45
2022/02/09 21:09:25;;;;;;;11.57;6.37;;;13.50;52.40;;;;;;5103026;28;20519;-45
2022/02/09 21:22:28;;;;;;;8.57;6.83;;;13.70;51.60;;;;;;5099441;28;20856;-45
2022/02/09 21:46:55;;;;;;;10.73;7.63;;;13.70;50.70;;;;;;5103440;28;20803;-47
2022/02/09 21:54:33;;;;;;;9.83;7.60;;;13.60;50.00;;;;;;5098628;28;20440;-45
2022/02/09 21:57:12;;;;;;;11.30;7.20;;;13.50;50.00;;;;;;5107360;28;20979;-47
2022/02/09 22:45:32;;;;;;;7.67;6.83;;;12.70;50.20;;;;;;5103609;28;20447;-47
2022/02/09 22:50:58;;;;;;;8.80;6.43;;;12.70;50.80;;;;;;5107517;28;20467;-46
2022/02/09 22:56:09;;;;;;;7.40;6.17;;;12.70;50.50;;;;;;5104062;28;20540;-46
2022/02/09 22:58:35;;;;;;;8.33;5.97;;;12.70;50.60;;;;;;5097865;28;20470;-47
2022/02/09 23:13:58;;;;;;;8.93;6.00;;;12.40;51.30;;;;;;5099935;28;20814;-48
2022/02/09 23:16:48;;;;;;;8.60;5.40;;;12.30;51.60;;;;;;5100800;28;20194;-50
2022/02/09 23:57:50;;;;;;;10.03;5.47;;;11.90;52.50;;;;;;5099015;28;21925;-49
